createdAt,value
2018-06-05T00:00:35.683Z,18.80
2018-06-05T00:03:06.992Z,18.80
2018-06-05T00:05:37.270Z,19.00
2018-06-05T00:08:06.327Z,19.00
2018-06-05T00:10:37.184Z,19.00
2018-06-05T00:13:06.785Z,19.00
2018-06-05T00:15:35.836Z,19.00
2018-06-05T00:18:04.850Z,19.00
2018-06-05T00:20:33.367Z,19.00
2018-06-05T00:23:05.983Z,18.90
2018-06-05T00:25:35.208Z,18.90
2018-06-05T00:28:03.812Z,18.80
2018-06-05T00:30:32.427Z,18.80
2018-06-05T00:33:02.164Z,18.80
2018-06-05T00:35:30.713Z,18.70
2018-06-05T00:37:59.223Z,18.80
2018-06-05T00:40:28.504Z,18.70
2018-06-05T00:42:57.525Z,18.60
2018-06-05T00:45:26.531Z,18.60
2018-06-05T00:47:55.128Z,18.60
2018-06-05T00:50:24.940Z,18.60
2018-06-05T00:52:56.686Z,18.60
2018-06-05T00:55:26.175Z,18.40
2018-06-05T00:57:55.196Z,18.30
2018-06-05T01:00:25.668Z,18.30
2018-06-05T01:02:54.651Z,18.20
2018-06-05T01:05:23.684Z,18.20
2018-06-05T01:07:53.880Z,18.20
2018-06-05T01:10:23.194Z,18.20
2018-06-05T01:12:51.723Z,18.10
2018-06-05T01:15:20.256Z,18.10
2018-06-05T01:17:48.813Z,18.10
2018-06-05T01:20:18.563Z,18.20
2018-06-05T01:22:48.048Z,18.30
2018-06-05T01:25:17.891Z,18.30
2018-06-05T01:27:46.423Z,18.40
2018-06-05T01:30:16.412Z,18.40
2018-06-05T01:32:47.463Z,18.40
2018-06-05T01:35:16.520Z,18.30
2018-06-05T01:37:45.067Z,18.20
2018-06-05T01:40:15.167Z,18.30
2018-06-05T01:42:44.184Z,18.20
2018-06-05T01:45:13.030Z,18.20
2018-06-05T04:06:45.282Z,16.90
2018-06-05T04:09:13.829Z,16.90
2018-06-05T04:11:42.369Z,17.00
2018-06-05T04:14:10.886Z,17.20
2018-06-05T04:16:39.450Z,17.30
2018-06-05T04:19:08.004Z,17.40
2018-06-05T04:21:37.341Z,17.50
2018-06-05T04:24:08.219Z,17.50
2018-06-05T04:26:37.740Z,17.40
2018-06-05T04:29:06.248Z,17.40
2018-06-05T04:31:34.763Z,17.30
2018-06-05T04:34:03.274Z,17.30
2018-06-05T04:36:31.748Z,17.50
2018-06-05T04:39:00.282Z,17.50
2018-06-05T04:41:28.825Z,17.20
2018-06-05T04:43:57.384Z,17.20
2018-06-05T04:46:25.926Z,17.10
2018-06-05T04:48:55.297Z,17.00
2018-06-05T04:51:23.947Z,17.00
2018-06-05T04:53:52.518Z,16.80
2018-06-05T04:56:21.068Z,16.70
2018-06-05T05:01:18.633Z,16.70
2018-06-05T05:03:47.190Z,16.60
2018-06-05T05:06:16.993Z,16.60
2018-06-05T05:08:46.001Z,16.90
2018-06-05T05:11:17.050Z,16.80
2018-06-05T05:13:46.502Z,16.90
2018-06-05T05:16:15.013Z,17.00
2018-06-05T05:18:44.451Z,16.90
2018-06-05T05:21:12.958Z,16.90
2018-06-05T05:23:42.954Z,16.90
2018-06-05T05:26:12.142Z,17.00
2018-06-05T05:28:40.711Z,16.90
2018-06-05T05:31:09.267Z,16.90
2018-06-05T05:33:40.646Z,17.00
2018-06-05T05:36:09.392Z,16.90
2018-06-05T05:38:40.198Z,16.90
2018-06-05T05:41:11.383Z,16.90
2018-06-05T05:43:39.899Z,16.90
2018-06-05T05:46:13.584Z,17.00
2018-06-05T05:51:12.231Z,17.20
2018-06-05T05:53:43.247Z,17.20
2018-06-05T05:56:14.129Z,17.40
2018-06-05T05:58:43.140Z,17.50
2018-06-05T06:01:11.658Z,17.40
2018-06-05T06:03:40.740Z,17.40
2018-06-05T06:06:10.779Z,17.30
2018-06-05T06:08:39.753Z,17.40
2018-06-05T06:11:09.687Z,17.50
2018-06-05T06:13:38.266Z,17.60
2018-06-05T06:16:07.670Z,17.70
2018-06-05T06:18:38.512Z,17.70
2018-06-05T06:21:07.095Z,17.70
2018-06-05T06:23:36.456Z,17.70
2018-06-05T06:26:04.975Z,17.70
2018-06-05T06:28:36.268Z,17.70
2018-06-05T06:31:06.171Z,17.80
2018-06-05T06:33:35.264Z,17.80
2018-06-05T06:36:04.917Z,17.80
2018-06-05T06:38:33.535Z,17.70
2018-06-05T06:41:06.058Z,17.70
2018-06-05T06:43:34.599Z,17.60
2018-06-05T06:46:04.654Z,17.50
2018-06-05T06:48:34.829Z,17.60
2018-06-05T06:51:04.370Z,17.80
2018-06-05T06:53:33.360Z,17.80
2018-06-05T06:56:04.178Z,17.80
2018-06-05T06:58:34.383Z,17.90
2018-06-05T07:01:02.911Z,17.70
2018-06-05T07:03:31.476Z,17.70
2018-06-05T07:06:02.900Z,17.60
2018-06-05T07:08:32.879Z,17.60
2018-06-05T07:11:03.338Z,17.60
2018-06-05T07:13:33.876Z,17.60
2018-06-05T07:16:04.321Z,17.70
2018-06-05T07:21:03.487Z,17.80
2018-06-05T07:23:32.031Z,17.80
2018-06-05T07:26:01.513Z,17.80
2018-06-05T07:28:31.112Z,17.90
2018-06-05T07:30:59.645Z,17.80
2018-06-05T07:33:30.065Z,17.80
2018-06-05T07:36:00.417Z,17.80
2018-06-05T07:40:58.023Z,18.00
2018-06-05T07:43:26.608Z,17.90
2018-06-05T07:45:55.170Z,18.00
2018-06-05T07:48:23.678Z,18.00
2018-06-05T07:50:53.153Z,18.00
2018-06-05T07:53:22.116Z,17.90
2018-06-05T07:55:51.052Z,18.00
2018-06-05T07:58:20.416Z,18.10
2018-06-05T08:00:49.356Z,18.10
2018-06-05T08:03:19.162Z,18.20
2018-06-05T08:05:47.683Z,18.30
2018-06-05T08:08:16.665Z,18.20
2018-06-05T08:10:48.086Z,18.30
2018-06-05T08:13:16.624Z,18.30
2018-06-05T08:15:47.026Z,18.40
2018-06-05T08:18:15.972Z,18.50
2018-06-05T08:20:46.037Z,18.60
2018-06-05T08:23:17.339Z,18.60
2018-06-05T08:25:46.391Z,18.60
2018-06-05T08:28:19.449Z,18.50
2018-06-05T08:30:49.252Z,18.30
2018-06-05T08:33:17.745Z,18.20
2018-06-05T08:35:47.888Z,18.10
2018-06-05T08:38:19.678Z,18.20
2018-06-05T08:40:49.481Z,18.40
2018-06-05T08:43:18.007Z,18.40
2018-06-05T08:45:47.817Z,18.30
2018-06-05T08:48:17.552Z,18.20
2018-06-05T08:50:47.528Z,18.30
2018-06-05T08:53:16.056Z,18.30
2018-06-05T08:55:45.941Z,18.20
2018-06-05T08:58:14.455Z,18.10
2018-06-05T09:00:44.360Z,17.90
2018-06-05T09:03:12.895Z,18.00
2018-06-05T09:05:42.974Z,18.10
2018-06-05T09:08:12.030Z,18.20
2018-06-05T09:10:42.996Z,18.30
2018-06-05T09:13:12.445Z,18.30
2018-06-05T09:15:41.035Z,18.30
2018-06-05T09:18:10.668Z,18.50
2018-06-05T09:20:40.908Z,18.60
2018-06-05T09:23:10.467Z,18.70
2018-06-05T09:25:38.986Z,18.70
2018-06-05T09:28:10.788Z,18.60
2018-06-05T09:30:39.314Z,18.60
2018-06-05T09:33:08.832Z,18.60
2018-06-05T09:35:40.030Z,18.60
2018-06-05T09:38:09.044Z,18.60
2018-06-05T09:40:39.407Z,18.60
2018-06-05T09:43:09.507Z,18.80
2018-06-05T09:45:40.233Z,18.80
2018-06-05T09:48:09.893Z,18.80
2018-06-05T09:50:43.962Z,18.90
2018-06-05T09:53:12.498Z,19.00
2018-06-05T09:55:42.215Z,19.00
2018-06-05T09:58:11.472Z,19.00
2018-06-05T10:00:45.853Z,19.10
2018-06-05T10:03:14.988Z,19.30
